DW0550 Weather Reports


Display with metric or nautical units.
time (UTC)temp
F
wind
direction
speed
MPH
gust
MPH
rain 1hr
in
rain 24hr
in
rain mn
in
humidity
%
barometer
mb
20181215165025 52 287 0.0 7.0 0.00 0.00 0.00 44 1018.0
20181215164602 52 283 1.0 7.0 0.00 0.00 0.00 44 1018.0
20181215164518 52 285 1.0 7.0 0.00 0.00 0.00 48 1017.8
20181215164056 52 244 1.0 7.0 0.00 0.00 0.00 44 1017.8
20181215163548 52 254 0.0 4.0 0.00 0.00 0.00 44 1018.0
20181215163041 52 286 0.0 8.0 0.00 0.00 0.00 44 1017.9
20181215163017 52 291 0.0 8.0 0.00 0.00 0.00 47 1017.8
20181215162520 52 300 1.0 8.0 0.00 0.00 0.00 44 1017.9
20181215162054 52 288 0.0 0.0 0.00 0.00 0.00 43 1017.8
20181215161546 52 293 0.0 5.0 0.00 0.00 0.00 43 1017.8
20181215161520 52 293 0.0 5.0 0.00 0.00 0.00 46 1017.8
20181215161041 52 279 1.0 5.0 0.00 0.00 0.00 43 1017.8
20181215160532 52 284 0.0 7.0 0.00 0.00 0.00 43 1017.8
20181215155533 52 241 0.0 0.0 0.00 0.00 0.00 43 1017.7
20181215155107 51 265 0.0 0.0 0.00 0.00 0.00 42 1017.6
20181215154624 52 263 0.0 6.0 0.00 0.00 0.00 45 1017.5
20181215154546 51 263 0.0 6.0 0.00 0.00 0.00 42 1017.7
20181215154041 51 310 1.0 6.0 0.00 0.00 0.00 42 1017.7
20181215153535 51 286 0.0 0.0 0.00 0.00 0.00 42 1017.8
20181215153132 52 285 0.0 5.0 0.00 0.00 0.00 45 1017.6
20181215153029 51 285 0.0 5.0 0.00 0.00 0.00 42 1017.8
20181215152603 51 286 1.0 5.0 0.00 0.00 0.00 42 1017.9
20181215152038 51 284 0.0 5.0 0.00 0.00 0.00 41 1017.8
20181215151616 52 284 0.0 5.0 0.00 0.00 0.00 45 1017.6
20181215151516 51 284 0.0 5.0 0.00 0.00 0.00 42 1017.7
20181215151108 51 304 0.0 1.0 0.00 0.00 0.00 41 1017.6
20181215150546 51 277 0.0 4.0 0.00 0.00 0.00 41 1017.5
20181215150100 51 290 0.0 10.0 0.00 0.00 0.00 44 1017.3
20181215145542 51 297 1.0 10.0 0.00 0.00 0.00 42 1017.5
20181215145037 51 273 1.0 9.0 0.00 0.00 0.00 42 1017.5
20181215144639 51 314 2.0 9.0 0.00 0.00 0.00 44 1017.4
20181215144530 51 315 3.0 9.0 0.00 0.00 0.00 41 1017.5
20181215144022 51 299 0.0 5.0 0.00 0.00 0.00 41 1017.5
20181215143557 51 296 0.0 7.0 0.00 0.00 0.00 41 1017.5
20181215143120 51 294 2.0 13.0 0.00 0.00 0.00 45 1017.4
20181215143036 51 283 2.0 13.0 0.00 0.00 0.00 42 1017.5
20181215142531 51 274 1.0 13.0 0.00 0.00 0.00 42 1017.4
20181215142104 51 284 0.0 5.0 0.00 0.00 0.00 41 1017.3
20181215141553 51 274 0.0 5.0 0.00 0.00 0.00 41 1017.2
20181215141549 51 274 0.0 5.0 0.00 0.00 0.00 44 1017.1
20181215141048 51 322 0.0 0.0 0.00 0.00 0.00 41 1017.3
20181215140540 51 259 0.0 5.0 0.00 0.00 0.00 41 1017.2
20181215140115 51 278 0.0 7.0 0.00 0.00 0.00 44 1017.0
20181215135601 51 282 0.0 7.0 0.00 0.00 0.00 41 1017.0
20181215135036 51 264 0.0 3.0 0.00 0.00 0.00 41 1016.7
20181215134627 51 249 0.0 0.0 0.00 0.00 0.00 44 1016.5
20181215134529 51 248 0.0 0.0 0.00 0.00 0.00 41 1016.5
20181215134104 51 248 0.0 3.0 0.00 0.00 0.00 41 1016.5
20181215133557 51 216 0.0 8.0 0.00 0.00 0.00 41 1016.3
20181215133041 51 300 2.0 13.0 0.00 0.00 0.00 44 1016.2
20181215133033 51 300 2.0 13.0 0.00 0.00 0.00 41 1016.3
20181215132529 51 258 3.0 13.0 0.00 0.00 0.00 41 1016.2
20181215132102 51 282 1.0 8.0 0.00 0.00 0.00 41 1016.1
20181215131558 51 307 0.0 7.0 0.00 0.00 0.00 41 1016.1
20181215131552 51 308 0.0 7.0 0.00 0.00 0.00 44 1015.9
20181215131034 51 244 1.0 10.0 0.00 0.00 0.00 41 1016.1
20181215130529 51 312 3.0 10.0 0.00 0.01 0.00 41 1016.0
20181215130019 51 304 0.0 13.0 0.00 0.00 0.00 44 1015.6
20181215125548 51 206 0.0 15.0 0.00 0.01 0.00 41 1015.9
20181215125041 51 284 3.0 13.0 0.00 0.01 0.00 41 1015.9
20181215124536 51 285 1.0 11.0 0.00 0.01 0.00 41 1015.9
20181215124527 51 250 1.0 11.0 0.00 0.01 0.00 44 1015.6
20181215124031 51 284 0.0 8.0 0.00 0.01 0.00 41 1015.8
20181215123603 51 297 1.0 8.0 0.00 0.01 0.00 41 1015.9
20181215123057 51 271 0.0 13.0 0.00 0.01 0.00 44 1015.5
20181215123037 51 271 1.0 13.0 0.00 0.01 0.00 41 1015.8
20181215122532 51 290 1.0 11.0 0.00 0.01 0.00 41 1015.9
20181215122105 51 290 3.0 10.0 0.00 0.01 0.00 41 1015.8
20181215121600 51 320 3.0 12.0 0.00 0.01 0.00 41 1015.9
20181215121527 51 295 3.0 12.0 0.00 0.01 0.00 44 1015.5
20181215121053 51 319 4.0 12.0 0.00 0.01 0.00 41 1015.9
20181215120529 51 282 0.0 15.0 0.00 0.01 0.00 41 1015.8
20181215120010 51 273 0.0 12.0 0.00 0.01 0.00 44 1015.4
20181215115532 51 271 3.0 14.0 0.00 0.01 0.00 41 1015.7
20181215115025 51 306 1.0 14.0 0.00 0.01 0.00 41 1015.6
20181215114521 51 238 3.0 9.0 0.00 0.01 0.00 41 1015.4
20181215114056 51 291 0.0 12.0 0.00 0.01 0.00 41 1015.1
20181215113550 51 280 0.0 10.0 0.00 0.01 0.00 41 1015.2
20181215113223 51 286 0.0 11.0 0.00 0.01 0.00 44 1014.9
20181215113044 51 283 0.0 11.0 0.00 0.01 0.00 41 1015.0
20181215112539 51 306 0.0 11.0 0.00 0.01 0.00 41 1015.0
20181215112016 51 302 1.0 11.0 0.00 0.01 0.00 41 1014.7
20181215111743 51 281 1.0 11.0 0.00 0.01 0.00 45 1014.6
20181215111550 51 277 2.0 11.0 0.00 0.01 0.00 42 1014.7
20181215111043 51 309 0.0 8.0 0.00 0.01 0.00 42 1014.8
20181215110536 51 308 1.0 9.0 0.00 0.01 0.00 42 1014.8
20181215110143 51 345 1.0 15.0 0.00 0.01 0.00 45 1014.7
20181215105555 51 298 6.0 15.0 0.00 0.01 0.00 42 1014.8
20181215105029 51 252 1.0 11.0 0.00 0.01 0.00 42 1014.8
20181215104826 51 286 0.0 12.0 0.00 0.01 0.00 45 1014.6
20181215104602 51 286 0.0 12.0 0.00 0.01 0.00 42 1014.8
20181215104036 51 271 3.0 14.0 0.00 0.01 0.00 42 1014.6
20181215103603 51 318 1.0 14.0 0.00 0.01 0.00 42 1014.5
20181215103214 52 250 0.0 14.0 0.00 0.01 0.00 45 1014.4
20181215103038 51 251 0.0 14.0 0.00 0.01 0.00 42 1014.5
20181215102533 51 294 4.0 14.0 0.00 0.01 0.00 43 1014.7
20181215102107 51 240 2.0 10.0 0.00 0.01 0.00 43 1014.5
20181215101653 52 211 1.0 10.0 0.00 0.01 0.00 46 1014.4
20181215101542 51 254 1.0 10.0 0.00 0.01 0.00 43 1014.5
20181215101036 51 234 2.0 10.0 0.00 0.01 0.00 43 1014.6
20181215100529 51 250 0.0 7.0 0.00 0.01 0.00 43 1014.5
20181215100140 52 305 1.0 7.0 0.00 0.01 0.00 46 1014.3
20181215095530 51 264 3.0 10.0 0.00 0.01 0.00 43 1014.5
20181215095104 51 296 3.0 10.0 0.00 0.01 0.00 43 1014.4
20181215094625 52 295 0.0 12.0 0.00 0.01 0.00 46 1014.4
20181215094559 51 295 1.0 12.0 0.00 0.01 0.00 43 1014.6
20181215094034 51 302 0.0 10.0 0.00 0.01 0.00 43 1014.7
20181215093606 51 262 1.0 12.0 0.00 0.01 0.00 44 1014.8
20181215093114 52 302 3.0 15.0 0.00 0.01 0.00 47 1014.5
20181215093042 51 304 4.0 15.0 0.00 0.01 0.00 44 1014.6
20181215092535 51 316 3.0 15.0 0.00 0.01 0.00 44 1014.4
20181215092015 51 281 1.0 13.0 0.00 0.01 0.00 44 1014.3
20181215091614 52 314 2.0 15.0 0.00 0.01 0.00 47 1014.1
20181215091549 51 312 3.0 15.0 0.00 0.01 0.00 44 1014.3
20181215091044 51 290 0.0 18.0 0.00 0.01 0.00 44 1014.3
20181215090538 51 313 6.0 18.0 0.00 0.01 0.00 44 1014.2
20181215090039 52 313 4.0 10.0 0.00 0.01 0.00 47 1013.9
20181215085556 51 281 0.0 12.0 0.00 0.01 0.00 44 1014.0
20181215085050 51 300 2.0 10.0 0.00 0.01 0.00 44 1014.0
20181215084551 51 293 0.0 11.0 0.00 0.01 0.00 44 1014.1
20181215084536 52 268 0.0 11.0 0.00 0.01 0.00 47 1013.9
20181215084021 51 272 3.0 11.0 0.00 0.01 0.00 44 1014.1
20181215083550 51 321 0.0 5.0 0.00 0.01 0.00 44 1014.1
20181215083043 51 274 0.0 7.0 0.00 0.01 0.00 47 1013.7
20181215083026 51 274 0.0 7.0 0.00 0.01 0.00 44 1013.9
20181215082515 51 286 0.0 10.0 0.00 0.01 0.00 44 1013.8
20181215082051 51 252 1.0 10.0 0.00 0.01 0.00 44 1013.7
20181215081543 51 276 1.0 11.0 0.00 0.01 0.00 44 1013.5
20181215081525 51 301 1.0 11.0 0.00 0.01 0.00 47 1013.3
20181215081038 51 320 1.0 10.0 0.00 0.01 0.00 44 1013.4
20181215080517 51 253 4.0 23.0 0.00 0.02 0.00 44 1013.3
20181215080114 51 316 4.0 23.0 0.00 0.02 0.00 44 1013.1
20181215080012 51 205 7.0 23.0 0.00 0.01 0.00 47 1013.0
20181215075526 51 198 2.0 17.0 0.00 0.02 0.00 44 1013.0
20181215075020 51 286 4.0 17.0 0.00 0.02 0.00 45 1013.0
20181215074535 51 283 3.0 12.0 0.00 0.02 0.00 45 1013.0
20181215074511 52 254 2.0 12.0 0.00 0.02 0.00 48 1013.1
20181215074029 51 281 0.0 13.0 0.00 0.02 0.00 46 1013.1
20181215073524 51 272 3.0 13.0 0.00 0.02 0.00 46 1013.2
20181215073018 51 308 0.0 10.0 0.00 0.02 0.00 46 1013.2
20181215073007 52 308 0.0 10.0 0.00 0.02 0.00 49 1013.2
20181215072517 51 225 1.0 10.0 0.00 0.02 0.00 47 1013.1
20181215072031 51 264 0.0 7.0 0.00 0.02 0.00 46 1013.2
20181215071526 51 271 1.0 11.0 0.00 0.02 0.00 47 1013.2
20181215071508 52 277 0.0 11.0 0.00 0.02 0.00 50 1013.1
20181215071021 51 290 3.0 11.0 0.00 0.02 0.00 47 1013.2
20181215070517 51 275 2.0 9.0 0.00 0.02 0.00 47 1013.2
20181215070113 51 167 0.0 12.0 0.00 0.02 0.00 46 1013.2
20181215065526 51 252 4.0 12.0 0.00 0.02 0.00 46 1013.3
20181215065021 51 263 1.0 11.0 0.00 0.02 0.00 46 1013.3
20181215064659 52 263 0.0 11.0 0.00 0.02 0.00 50 1013.2
20181215064520 51 263 1.0 11.0 0.00 0.02 0.00 47 1013.3
20181215064015 51 292 2.0 10.0 0.00 0.02 0.00 47 1013.4
20181215063531 51 263 1.0 7.0 0.00 0.02 0.00 47 1013.4
20181215063207 52 267 0.0 10.0 0.00 0.02 0.00 50 1013.2
20181215063025 51 223 1.0 10.0 0.00 0.02 0.00 47 1013.3
20181215062519 51 242 2.0 12.0 0.00 0.02 0.00 47 1013.2
20181215062034 52 248 0.0 12.0 0.00 0.02 0.00 48 1013.2
20181215061706 52 233 0.0 12.0 0.00 0.02 0.00 53 1013.1
20181215061529 52 269 1.0 12.0 0.00 0.02 0.00 50 1013.1
20181215061028 52 270 0.0 9.0 0.00 0.02 0.00 50 1013.1
20181215060521 52 265 1.0 11.0 0.00 0.05 0.02 51 1013.1
20181215060133 52 231 1.0 11.0 0.00 0.02 0.00 55 1013.0
20181215060058 52 231 1.0 11.0 0.00 0.05 0.02 52 1013.2
20181215055550 52 175 1.0 11.0 0.00 0.05 0.02 52 1013.2
20181215055043 52 223 1.0 9.0 0.00 0.05 0.02 52 1013.3
20181215054544 52 281 1.0 9.0 0.00 0.05 0.02 56 1013.2
20181215054539 52 246 1.0 9.0 0.00 0.05 0.02 52 1013.3
20181215054031 52 275 0.0 9.0 0.00 0.05 0.02 53 1013.2
20181215053603 52 264 0.0 9.0 0.00 0.05 0.02 53 1013.2
20181215053058 52 213 0.0 8.0 0.00 0.05 0.02 53 1013.1
20181215053041 52 213 0.0 8.0 0.00 0.05 0.02 56 1013.0
20181215052536 52 268 1.0 10.0 0.00 0.05 0.02 53 1013.1
20181215052111 52 279 0.0 10.0 0.00 0.05 0.02 53 1013.1
20181215051610 52 274 0.0 7.0 0.00 0.05 0.02 56 1012.8
20181215051546 52 274 0.0 7.0 0.00 0.05 0.02 53 1013.1
20181215051040 52 181 0.0 8.0 0.00 0.05 0.02 53 1013.1
20181215050535 52 277 1.0 9.0 0.00 0.05 0.02 54 1013.1
20181215050136 53 232 0.0 9.0 0.00 0.05 0.02 57 1012.9
20181215050110 52 232 0.0 9.0 0.00 0.05 0.02 54 1013.1
20181215045523 52 296 0.0 1.0 0.00 0.05 0.02 55 1013.1
20181215045016 52 303 0.0 5.0 0.00 0.05 0.02 56 1013.2
20181215044606 52 259 0.0 8.0 0.00 0.05 0.02 57 1013.2
20181215044545 53 259 0.0 8.0 0.00 0.05 0.02 60 1013.0
20181215044038 52 236 2.0 8.0 0.00 0.05 0.02 56 1013.2
20181215043532 52 194 1.0 6.0 0.00 0.05 0.02 57 1013.0
20181215043112 53 246 0.0 7.0 0.00 0.05 0.02 60 1012.8
20181215043107 52 246 0.0 7.0 0.00 0.05 0.02 57 1012.9
20181215042558 53 277 1.0 10.0 0.00 0.05 0.02 57 1012.9
20181215042034 53 331 1.0 10.0 0.00 0.05 0.02 58 1012.9
20181215041557 53 280 0.0 10.0 0.00 0.05 0.02 61 1012.9
20181215041527 53 280 1.0 10.0 0.00 0.05 0.02 58 1013.0
20181215041102 53 190 1.0 10.0 0.00 0.05 0.02 59 1012.9
20181215040541 53 255 1.0 8.0 0.00 0.05 0.02 59 1012.9
20181215040026 53 173 0.0 12.0 0.00 0.05 0.02 62 1012.9
20181215035540 53 168 1.0 12.0 0.00 0.05 0.02 59 1013.0
20181215035031 53 256 0.0 8.0 0.00 0.05 0.02 60 1013.0
20181215034607 53 260 0.0 5.0 0.00 0.05 0.02 61 1013.0
20181215034532 53 267 0.0 7.0 0.00 0.05 0.02 64 1012.9
20181215034058 53 252 0.0 7.0 0.00 0.05 0.02 61 1013.0
20181215033550 53 271 0.0 8.0 0.00 0.05 0.02 61 1013.0
20181215033043 53 232 1.0 8.0 0.00 0.05 0.02 62 1012.9
20181215033031 53 232 0.0 8.0 0.00 0.05 0.02 65 1012.8
20181215032522 53 296 0.0 9.0 0.00 0.05 0.02 62 1012.8
20181215032058 53 273 1.0 9.0 0.00 0.05 0.02 63 1012.7
20181215031549 53 268 0.0 7.0 0.00 0.05 0.02 63 1012.7
20181215031525 53 264 0.0 7.0 0.00 0.05 0.02 66 1012.7
20181215031044 53 292 3.0 7.0 0.00 0.05 0.02 64 1012.7
20181215030533 53 273 0.0 5.0 0.00 0.06 0.02 64 1012.7
20181215030111 53 230 0.0 6.0 0.00 0.06 0.02 64 1012.8
20181215030031 53 261 0.0 6.0 0.00 0.05 0.02 67 1012.7
20181215025603 53 249 0.0 8.0 0.00 0.06 0.02 64 1012.8
20181215025055 53 296 0.0 8.0 0.00 0.06 0.02 64 1012.8
20181215024605 53 281 0.0 5.0 0.00 0.06 0.02 68 1012.8
20181215024549 53 238 1.0 5.0 0.00 0.06 0.02 65 1012.9
20181215024024 53 236 0.0 9.0 0.00 0.06 0.02 66 1012.9
20181215023556 53 226 2.0 9.0 0.00 0.06 0.02 66 1012.8
20181215023049 53 233 3.0 11.0 0.00 0.06 0.02 66 1012.7
20181215023020 54 303 2.0 11.0 0.00 0.06 0.02 69 1012.7
20181215022536 53 276 1.0 11.0 0.00 0.06 0.02 67 1012.7
20181215022031 53 222 0.0 5.0 0.00 0.06 0.02 67 1012.8
20181215021604 53 309 0.0 6.0 0.00 0.06 0.02 67 1012.8
20181215021542 54 248 0.0 6.0 0.00 0.06 0.02 70 1012.7
20181215021057 53 240 0.0 9.0 0.00 0.06 0.02 67 1012.7
20181215020533 53 265 1.0 12.0 0.00 0.06 0.02 68 1012.6
20181215020029 54 306 2.0 12.0 0.00 0.06 0.02 71 1012.6
20181215015532 53 308 2.0 12.0 0.00 0.06 0.02 68 1012.6
20181215015027 53 230 1.0 10.0 0.00 0.06 0.02 68 1012.5
20181215014603 53 217 0.0 10.0 0.00 0.06 0.02 68 1012.6
20181215014518 54 240 0.0 10.0 0.00 0.06 0.02 71 1012.5
20181215014032 53 227 1.0 9.0 0.00 0.06 0.02 68 1012.5
20181215013606 53 253 1.0 12.0 0.00 0.06 0.02 68 1012.6
20181215013100 53 242 1.0 12.0 0.00 0.06 0.02 68 1012.4
20181215013028 54 288 2.0 12.0 0.00 0.06 0.02 71 1012.3
20181215012555 53 243 3.0 14.0 0.00 0.06 0.02 68 1012.5
20181215012031 53 298 6.0 14.0 0.00 0.06 0.02 68 1012.5
20181215011607 54 197 1.0 11.0 0.00 0.06 0.02 71 1012.2
20181215011605 53 199 0.0 11.0 0.00 0.06 0.02 68 1012.4
20181215011059 53 207 0.0 11.0 0.00 0.06 0.02 68 1012.4
20181215010535 53 248 1.0 10.0 0.00 0.06 0.02 68 1012.3
20181215005554 53 269 0.0 11.0 0.00 0.06 0.02 68 1012.2
20181215005049 53 314 0.0 9.0 0.00 0.06 0.02 68 1012.2
20181215004701 54 261 1.0 9.0 0.00 0.06 0.02 71 1012.0
20181215004527 53 244 1.0 9.0 0.00 0.06 0.02 68 1012.2
20181215004101 53 241 0.0 6.0 0.00 0.06 0.02 68 1012.2
20181215003555 53 240 1.0 8.0 0.00 0.06 0.02 68 1012.2
20181215003128 54 263 0.0 9.0 0.00 0.06 0.02 70 1012.0
20181215003031 53 279 0.0 9.0 0.00 0.06 0.02 67 1012.2
20181215002606 53 254 0.0 7.0 0.00 0.06 0.02 65 1012.2
20181215002100 53 281 0.0 8.0 0.00 0.06 0.02 65 1012.3
20181215001640 54 286 0.0 8.0 0.00 0.06 0.02 68 1012.0
20181215001552 53 289 1.0 8.0 0.00 0.06 0.02 64 1012.2
20181215001048 53 223 2.0 8.0 0.00 0.06 0.02 63 1012.2
20181215000522 53 268 0.0 5.0 0.00 0.06 0.02 61 1012.1
20181215000151 54 221 0.0 5.0 0.00 0.06 0.02 63 1012.0
20181215000100 54 221 0.0 5.0 0.00 0.06 0.02 60 1012.1
20181214235553 54 246 0.0 4.0 0.00 0.06 0.02 61 1012.1
20181214235048 53 278 0.0 4.0 0.00 0.06 0.02 61 1012.1
20181214234542 53 300 0.0 3.0 0.00 0.06 0.02 60 1012.1
20181214234037 53 282 0.0 2.0 0.00 0.06 0.02 60 1011.9
20181214233531 53 234 0.0 0.0 0.00 0.06 0.02 60 1011.8
20181214233047 53 265 0.0 4.0 0.00 0.06 0.02 60 1011.7
20181214232526 53 254 0.0 5.0 0.00 0.06 0.02 61 1011.7
20181214232101 53 294 0.0 0.0 0.00 0.06 0.02 61 1011.7
20181214231612 54 255 0.0 0.0 0.00 0.06 0.02 65 1011.4
20181214231537 53 255 0.0 0.0 0.00 0.06 0.02 62 1011.6
20181214231031 53 254 0.0 0.0 0.00 0.06 0.02 62 1011.6
20181214230603 54 254 0.0 0.0 0.00 0.06 0.02 62 1011.7
20181214230115 54 254 0.0 0.0 0.00 0.06 0.02 66 1011.3
20181214225559 54 253 0.0 6.0 0.00 0.06 0.02 64 1011.3
20181214225052 54 258 1.0 8.0 0.00 0.06 0.02 65 1011.3
20181214224605 55 289 0.0 8.0 0.00 0.06 0.02 68 1011.0
20181214224526 54 289 0.0 8.0 0.00 0.06 0.02 65 1011.1
20181214224101 55 268 0.0 7.0 0.00 0.06 0.02 65 1011.1
20181214223536 55 310 0.0 6.0 0.00 0.06 0.02 65 1011.0
20181214223056 55 219 0.0 6.0 0.00 0.06 0.02 69 1010.8
20181214223030 55 219 0.0 6.0 0.00 0.06 0.02 66 1011.0
20181214222604 55 268 0.0 6.0 0.00 0.06 0.02 66 1010.7
20181214222059 55 252 1.0 5.0 0.00 0.06 0.02 67 1010.6
20181214221628 56 281 0.0 12.0 0.00 0.06 0.02 70 1010.5
20181214221535 56 281 0.0 12.0 0.00 0.06 0.02 67 1010.5
20181214221110 56 299 2.0 12.0 0.00 0.06 0.02 67 1010.4
20181214220546 56 237 2.0 12.0 0.00 0.07 0.02 67 1010.4
20181214220118 57 263 0.0 12.0 0.00 0.06 0.02 70 1010.4
20181214215544 56 211 0.0 7.0 0.00 0.07 0.02 68 1010.4
20181214215039 56 333 1.0 7.0 0.00 0.07 0.02 67 1010.5
20181214214552 57 233 0.0 10.0 0.00 0.08 0.02 70 1010.5
20181214214515 57 231 0.0 10.0 0.00 0.07 0.02 67 1010.6
20181214214050 57 277 2.0 13.0 0.00 0.07 0.02 67 1010.6
20181214213543 57 290 2.0 13.0 0.00 0.07 0.02 67 1010.4
20181214213142 57 281 0.0 6.0 0.00 0.08 0.02 69 1010.3
20181214213021 56 288 0.0 6.0 0.00 0.07 0.02 66 1010.4
20181214212552 56 254 0.0 12.0 0.00 0.07 0.02 67 1010.4
20181214212046 56 286 4.0 14.0 0.00 0.07 0.02 67 1010.3
20181214211546 57 305 2.0 11.0 0.00 0.08 0.02 70 1010.1
20181214211542 56 305 2.0 11.0 0.00 0.07 0.02 67 1010.2
20181214211035 57 276 5.0 12.0 0.00 0.07 0.02 67 1010.3
20181214210530 57 323 2.0 12.0 0.00 0.17 0.02 67 1010.2
20181214210051 57 279 0.0 6.0 0.00 0.08 0.02 70 1009.9
20181214205531 57 284 0.0 7.0 0.00 0.17 0.02 66 1010.0
20181214205020 57 286 1.0 7.0 0.00 0.17 0.02 67 1009.9
20181214204623 57 289 0.0 8.0 0.00 0.17 0.02 69 1009.9
20181214204555 57 289 0.0 8.0 0.00 0.17 0.02 66 1010.0
20181214204047 57 275 1.0 8.0 0.00 0.17 0.02 67 1009.9
20181214203542 57 205 0.0 0.0 0.00 0.17 0.02 66 1010.0
20181214203057 57 246 0.0 4.0 0.00 0.17 0.02 69 1009.8
20181214203037 57 246 0.0 4.0 0.00 0.17 0.02 66 1009.8
20181214202532 57 240 0.0 4.0 0.00 0.17 0.02 66 1009.8
20181214202106 57 254 0.0 8.0 0.00 0.17 0.02 66 1009.8
20181214201601 57 264 2.0 8.0 0.00 0.17 0.02 67 1009.9
20181214201552 57 269 1.0 8.0 0.00 0.17 0.02 70 1009.9
20181214201039 57 188 1.0 5.0 0.00 0.17 0.02 67 1010.0
20181214200534 57 275 0.0 2.0 0.00 0.27 0.02 66 1010.0
20181214200044 57 273 0.0 8.0 0.00 0.17 0.02 70 1009.9
20181214195528 57 245 1.0 8.0 0.00 0.27 0.02 67 1010.1
20181214195102 57 337 1.0 8.0 0.00 0.27 0.02 67 1010.1
20181214194557 58 300 0.0 6.0 0.00 0.31 0.02 70 1009.9
20181214194051 57 263 1.0 6.0 0.00 0.27 0.02 67 1010.0
20181214193526 57 225 0.0 7.0 0.00 0.27 0.02 67 1010.1
20181214193100 57 207 0.0 9.0 0.00 0.27 0.02 67 1010.1
20181214193036 58 241 0.0 9.0 0.00 0.31 0.02 70 1009.9
20181214192555 57 259 1.0 9.0 0.00 0.27 0.02 67 1010.2
20181214192031 57 287 0.0 6.0 0.00 0.27 0.02 66 1010.1
20181214191606 57 206 0.0 8.0 0.00 0.27 0.02 67 1010.1
20181214191546 57 206 0.0 8.0 0.00 0.31 0.02 70 1010.1
20181214191100 57 277 1.0 8.0 0.00 0.27 0.02 67 1010.2
20181214190554 57 303 0.0 10.0 0.00 0.46 0.02 67 1010.3
20181214190054 58 298 1.0 10.0 0.00 0.31 0.02 71 1010.4
20181214185554 57 267 0.0 10.0 0.00 0.46 0.02 67 1010.4
20181214185025 58 281 0.0 12.0 0.00 0.46 0.02 67 1010.4
20181214184601 58 192 2.0 12.0 0.00 0.46 0.02 67 1010.4
20181214184540 58 180 2.0 12.0 0.00 0.51 0.02 70 1010.5
20181214184040 58 200 0.0 11.0 0.00 0.46 0.02 67 1010.5
20181214183535 58 304 2.0 13.0 0.00 0.46 0.02 68 1010.4
20181214183134 59 275 3.0 13.0 0.00 0.51 0.02 70 1010.4
20181214183028 59 275 4.0 13.0 0.00 0.46 0.02 67 1010.4
20181214182603 59 117 0.0 4.0 0.00 0.46 0.02 67 1010.5
20181214182039 59 259 0.0 10.0 0.00 0.46 0.02 67 1010.5
20181214181616 59 230 2.0 10.0 0.00 0.51 0.02 70 1010.2
20181214181534 59 230 2.0 10.0 0.00 0.46 0.02 67 1010.3
20181214181109 58 269 2.0 11.0 0.00 0.46 0.02 67 1010.6
20181214180543 58 256 3.0 10.0 0.00 0.55 0.02 67 1010.8
20181214180058 59 286 0.0 10.0 0.00 0.51 0.02 70 1010.7
20181214175544 58 267 0.0 10.0 0.00 0.55 0.02 67 1010.9
20181214175036 58 289 4.0 11.0 0.00 0.55 0.02 68 1010.9
20181214174607 58 295 4.0 10.0 0.00 0.55 0.02 68 1011.1
20181214174558 59 295 4.0 10.0 0.00 0.55 0.02 71 1011.0
20181214174042 58 271 1.0 10.0 0.00 0.55 0.02 67 1011.3
20181214173536 57 294 2.0 12.0 0.00 0.55 0.02 68 1011.4
20181214173038 59 225 4.0 12.0 0.00 0.55 0.02 71 1011.5
20181214173015 58 269 3.0 12.0 0.00 0.55 0.02 67 1011.5
20181214172606 58 284 2.0 4.0 0.00 0.55 0.02 67 1011.6
20181214172044 57 298 1.0 10.0 0.00 0.55 0.02 65 1011.5
20181214171540 57 286 0.0 7.0 0.00 0.55 0.02 67 1011.8
20181214171538 57 286 0.0 7.0 0.00 0.55 0.02 64 1011.9
20181214171032 56 308 0.0 5.0 0.00 0.55 0.02 65 1011.9
20181214170526 56 266 0.0 5.0 0.00 0.55 0.02 64 1012.0
20181214170022 56 296 0.0 5.0 0.00 0.55 0.02 67 1011.9
20181214165546 56 282 0.0 1.0 0.00 0.55 0.02 64 1012.1